createdAt,value
2018-07-10T00:01:19.165Z,70.5
2018-07-10T00:06:17.874Z,70.3
2018-07-10T00:11:16.539Z,70.2
2018-07-10T00:16:14.974Z,70.1
2018-07-10T00:21:13.575Z,70.2
2018-07-10T00:26:11.895Z,70.9
2018-07-10T00:31:10.433Z,71.1
2018-07-10T00:36:10.061Z,71.2
2018-07-10T00:41:08.513Z,71.6
2018-07-10T00:46:06.963Z,71.2
2018-07-10T00:51:05.496Z,71.2
2018-07-10T00:56:04.405Z,71.6
2018-07-10T01:01:03.184Z,71.5
2018-07-10T01:06:01.842Z,71.8
2018-07-10T01:11:00.045Z,71.5
2018-07-10T01:15:58.693Z,71.9
2018-07-10T01:20:57.406Z,71.6
2018-07-10T01:25:56.188Z,71.6
2018-07-10T01:30:54.848Z,71.4
2018-07-10T01:35:53.029Z,71.8
2018-07-10T01:40:51.986Z,71.5
2018-07-10T01:45:50.589Z,70.9
2018-07-10T01:50:49.086Z,70.9
2018-07-10T01:55:47.718Z,70.9
2018-07-10T02:00:46.124Z,70.9
2018-07-10T02:05:44.625Z,71.4
2018-07-10T02:10:43.420Z,71.1
2018-07-10T02:15:42.481Z,71.2
2018-07-10T02:20:41.062Z,71
2018-07-10T02:25:39.559Z,70.8
2018-07-10T02:30:38.203Z,71
2018-07-10T02:35:36.478Z,70.8
2018-07-10T02:40:35.513Z,71
2018-07-10T02:45:34.265Z,70.2
2018-07-10T02:50:32.876Z,70.1
2018-07-10T02:55:31.520Z,70.3
2018-07-10T03:00:30.260Z,70.8
2018-07-10T03:05:28.868Z,70.8
2018-07-10T03:10:27.264Z,70.3
2018-07-10T03:15:25.875Z,70.5
2018-07-10T03:20:24.893Z,70.5
2018-07-10T03:25:23.398Z,70.4
2018-07-10T03:30:22.069Z,70.8
2018-07-10T03:35:20.424Z,70.1
2018-07-10T03:40:18.907Z,70
2018-07-10T03:45:16.963Z,70.2
2018-07-10T03:50:15.624Z,70.1
2018-07-10T03:55:14.281Z,70.5
2018-07-10T04:00:12.819Z,69.9
2018-07-10T04:05:11.256Z,69.9
2018-07-10T04:10:09.740Z,70.1
2018-07-10T04:15:08.326Z,70.4
2018-07-10T04:20:07.168Z,70.5
2018-07-10T04:25:05.891Z,70.6
2018-07-10T04:30:05.136Z,70.6
2018-07-10T04:35:03.649Z,70.8
2018-07-10T04:40:02.286Z,70.8
2018-07-10T04:45:01.211Z,70.9
2018-07-10T04:49:59.550Z,70.1
2018-07-10T04:54:58.178Z,70
2018-07-10T04:59:56.574Z,70
2018-07-10T05:04:54.997Z,70
2018-07-10T05:09:53.642Z,69.4
2018-07-10T05:14:52.394Z,69.8
2018-07-10T05:19:51.053Z,69.6
2018-07-10T05:24:49.721Z,69.8
2018-07-10T05:29:48.229Z,69.7
2018-07-10T05:34:46.996Z,69.4
2018-07-10T05:39:45.752Z,69.6
2018-07-10T05:44:43.960Z,69.5
2018-07-10T05:49:42.640Z,69.7
2018-07-10T05:54:41.332Z,69.3
2018-07-10T05:59:39.640Z,69.5
2018-07-10T06:04:38.281Z,69.1
2018-07-10T06:09:36.727Z,69.1
2018-07-10T06:14:35.309Z,69
2018-07-10T06:19:33.298Z,68.7
2018-07-10T06:24:32.186Z,68.7
2018-07-10T06:29:30.679Z,68.7
2018-07-10T06:34:29.288Z,68.7
2018-07-10T06:39:27.884Z,69
2018-07-10T06:44:26.232Z,68.7
2018-07-10T06:49:25.062Z,68.6
2018-07-10T06:54:23.412Z,68.7
2018-07-10T06:59:22.080Z,68.4
2018-07-10T07:04:20.444Z,68.6
2018-07-10T07:09:18.950Z,67.8
2018-07-10T07:14:17.351Z,67.5
2018-07-10T07:19:15.996Z,66.9
2018-07-10T07:24:14.958Z,66.7
2018-07-10T07:29:13.980Z,66.1
2018-07-10T07:34:12.602Z,66.3
2018-07-10T07:39:11.317Z,66
2018-07-10T07:44:09.999Z,65.4
2018-07-10T07:49:08.468Z,65.8
2018-07-10T07:54:07.145Z,64.3
2018-07-10T07:59:05.865Z,64.1
2018-07-10T08:04:04.778Z,64.7
2018-07-10T08:09:03.598Z,64.6
2018-07-10T08:14:02.398Z,65.2
2018-07-10T08:19:01.372Z,64.9
2018-07-10T08:23:59.548Z,64.3
2018-07-10T08:28:58.051Z,63.3
2018-07-10T08:33:56.869Z,63.7
2018-07-10T08:38:55.490Z,63.8
2018-07-10T08:43:54.280Z,64.2
2018-07-10T08:48:52.190Z,64.3
2018-07-10T08:53:50.712Z,64.1
2018-07-10T08:58:49.545Z,64.3
2018-07-10T09:03:48.337Z,64
2018-07-10T09:08:47.071Z,63.3
2018-07-10T09:13:45.770Z,63.1
2018-07-10T09:18:44.535Z,62.8
2018-07-10T09:23:42.979Z,62.8
2018-07-10T09:28:41.754Z,61.8
2018-07-10T09:33:40.658Z,61.4
2018-07-10T09:38:39.548Z,60.5
2018-07-10T09:43:38.683Z,60.3
2018-07-10T09:48:37.732Z,60.5
2018-07-10T09:53:36.693Z,59.5
2018-07-10T09:58:35.543Z,57.6
2018-07-10T10:03:34.630Z,57.5
2018-07-10T10:08:33.604Z,56.5
2018-07-10T10:13:32.365Z,56.5
2018-07-10T10:18:31.311Z,57.5
2018-07-10T10:23:29.999Z,57.7
2018-07-10T10:28:28.973Z,57.7
2018-07-10T10:33:27.846Z,57.8
2018-07-10T10:38:26.630Z,58.4
2018-07-10T10:43:25.585Z,58.6
2018-07-10T10:48:24.310Z,58.3
2018-07-10T10:53:23.240Z,57.5
2018-07-10T10:58:22.139Z,56.8
2018-07-10T11:03:20.694Z,56.7
2018-07-10T11:08:19.487Z,56.5
2018-07-10T11:13:18.425Z,56.2
2018-07-10T11:18:17.510Z,56
2018-07-10T11:23:16.571Z,55.7
2018-07-10T11:28:15.354Z,56.2
2018-07-10T11:33:14.457Z,54.7
2018-07-10T11:38:13.407Z,54.7
2018-07-10T11:43:12.685Z,54.4
2018-07-10T11:48:11.667Z,53.8
2018-07-10T11:53:10.368Z,54.5
2018-07-10T11:58:09.005Z,54.8
2018-07-10T12:03:07.896Z,55
2018-07-10T12:08:06.619Z,55.3
2018-07-10T12:13:05.412Z,55.3
2018-07-10T12:18:04.371Z,54.5
2018-07-10T12:23:03.620Z,54.5
2018-07-10T12:28:02.783Z,54.7
2018-07-10T12:33:01.765Z,55.1
2018-07-10T12:38:00.561Z,54.5
2018-07-10T12:42:58.996Z,54.6
2018-07-10T12:47:57.901Z,53.7
2018-07-10T12:52:57.141Z,53.3
2018-07-10T12:57:55.951Z,53.3
2018-07-10T13:02:54.842Z,53
2018-07-10T13:07:54.054Z,52.1
2018-07-10T13:12:53.139Z,52
2018-07-10T13:17:52.677Z,51.2
2018-07-10T13:22:51.744Z,50.8
2018-07-10T13:27:50.562Z,50.2
2018-07-10T13:32:49.561Z,50.6
2018-07-10T13:37:48.244Z,51.2
2018-07-10T13:42:47.196Z,51.1
2018-07-10T13:47:46.352Z,51
2018-07-10T13:52:44.546Z,50
2018-07-10T13:57:43.756Z,49.7
2018-07-10T14:02:42.627Z,49.7
2018-07-10T14:07:41.831Z,49.5
2018-07-10T14:12:41.367Z,49.5
2018-07-10T14:17:40.345Z,49.4
2018-07-10T14:22:39.334Z,49.6
2018-07-10T14:27:38.109Z,50.3
2018-07-10T14:32:37.345Z,50.7
2018-07-10T14:37:36.300Z,51.1
2018-07-10T14:42:35.266Z,51.8
2018-07-10T14:47:34.429Z,52.4
2018-07-10T14:52:33.305Z,52.8
2018-07-10T14:57:32.388Z,52.4
2018-07-10T15:02:31.219Z,52.3
2018-07-10T15:07:30.176Z,51.5
2018-07-10T15:12:29.449Z,50.6
2018-07-10T15:17:28.600Z,50.4
2018-07-10T15:22:27.497Z,50.6
2018-07-10T15:27:26.446Z,50.6
2018-07-10T15:32:26.425Z,50.7
2018-07-10T15:37:25.321Z,50.6
2018-07-10T15:42:24.256Z,51.3
2018-07-10T15:47:23.010Z,51.7
2018-07-10T15:52:22.056Z,51.9
2018-07-10T15:57:21.180Z,52.4
2018-07-10T16:02:20.399Z,52.4
2018-07-10T16:07:19.126Z,52.6
2018-07-10T16:12:18.580Z,52.9
2018-07-10T16:17:17.531Z,53.2
2018-07-10T16:22:16.307Z,53.7
2018-07-10T16:27:15.347Z,54.1
2018-07-10T16:32:14.784Z,54.7
2018-07-10T16:37:13.501Z,55
2018-07-10T16:42:12.668Z,54.6
2018-07-10T16:47:12.135Z,55
2018-07-10T16:52:11.357Z,55
2018-07-10T16:57:10.215Z,55.2
2018-07-10T17:02:09.357Z,55.3
2018-07-10T17:07:08.544Z,55.3
2018-07-10T17:12:07.787Z,55.5
2018-07-10T17:17:06.861Z,55.9
2018-07-10T17:22:05.993Z,56.2
2018-07-10T17:27:04.949Z,56.3
2018-07-10T17:32:04.123Z,56.7
2018-07-10T17:37:02.901Z,56.7
2018-07-10T17:42:02.283Z,57.1
2018-07-10T17:47:01.091Z,57.1
2018-07-10T17:51:59.897Z,57.4
2018-07-10T17:56:58.734Z,57.5
2018-07-10T18:01:57.954Z,57.7
2018-07-10T18:06:57.424Z,57.8
2018-07-10T18:11:56.485Z,58.1
2018-07-10T18:16:55.532Z,58.3
2018-07-10T18:21:54.919Z,58.5
2018-07-10T18:26:53.805Z,58.8
2018-07-10T18:31:53.027Z,59.1
2018-07-10T18:36:51.926Z,59.2
2018-07-10T18:41:51.391Z,59.4
2018-07-10T18:46:50.370Z,59.4
2018-07-10T18:51:49.598Z,59.7
2018-07-10T18:56:48.603Z,59.8
2018-07-10T19:01:47.301Z,60.1
2018-07-10T19:06:46.734Z,60.1
2018-07-10T19:11:45.942Z,60.5
2018-07-10T19:16:45.907Z,60.6
2018-07-10T19:21:45.023Z,60.5
2018-07-10T19:26:44.379Z,60.5
2018-07-10T19:31:43.533Z,60.5
2018-07-10T19:36:42.803Z,60.3
2018-07-10T19:41:41.935Z,60.3
2018-07-10T19:46:41.170Z,60.4
2018-07-10T19:51:40.664Z,60.6
2018-07-10T19:56:40.105Z,60.6
2018-07-10T20:01:39.082Z,60.7
2018-07-10T20:06:38.152Z,60.7
2018-07-10T20:11:37.543Z,60.7
2018-07-10T20:16:39.296Z,60.7
2018-07-10T20:21:36.093Z,60.7
2018-07-10T20:26:35.408Z,60.7
2018-07-10T20:31:34.856Z,60.7
2018-07-10T20:36:34.073Z,60.6
2018-07-10T20:41:33.444Z,60.7
2018-07-10T20:46:32.626Z,60.7
2018-07-10T20:51:31.969Z,60.7
2018-07-10T20:56:31.256Z,60.7
2018-07-10T21:01:30.714Z,60.9
2018-07-10T21:06:29.748Z,60.9
2018-07-10T21:11:28.702Z,60.9
2018-07-10T21:16:27.842Z,61
2018-07-10T21:21:27.076Z,61.1
2018-07-10T21:26:26.003Z,61.2
2018-07-10T21:31:25.319Z,61.2
2018-07-10T21:36:24.466Z,61.2
2018-07-10T21:41:23.955Z,61.4
2018-07-10T21:46:23.010Z,61.3
2018-07-10T21:51:22.528Z,61.3
2018-07-10T21:56:21.893Z,61.3
2018-07-10T22:01:21.013Z,61.5
2018-07-10T22:06:20.466Z,61.4
2018-07-10T22:11:19.693Z,61.3
2018-07-10T22:16:19.756Z,61.4
2018-07-10T22:21:18.635Z,61.4
2018-07-10T22:26:18.008Z,61.5
2018-07-10T22:31:17.209Z,61.3
2018-07-10T22:36:16.419Z,61.4
2018-07-10T22:41:15.608Z,61.5
2018-07-10T22:46:15.068Z,61.7
2018-07-10T22:51:14.336Z,62.2
2018-07-10T22:56:13.842Z,62.6
2018-07-10T23:01:13.154Z,62.9
2018-07-10T23:06:12.485Z,63.2
2018-07-10T23:11:12.202Z,62.9
2018-07-10T23:16:11.466Z,62.8
2018-07-10T23:21:10.668Z,62.9
2018-07-10T23:26:10.136Z,63
2018-07-10T23:31:09.730Z,63.5
2018-07-10T23:36:09.268Z,63.7
2018-07-10T23:41:08.804Z,64
2018-07-10T23:46:08.134Z,64
2018-07-10T23:51:07.654Z,64.3
2018-07-10T23:56:06.685Z,64.8
